Time;durP1;ratioP1;P1;durP2;ratioP2;P2;SDS_P1;SDS_P2;PMS_P1;PMS_P2;Temp;Humidity;BMP_temperature;BMP_pressure;BME280_temperature;BME280_humidity;BME280_pressure;Samples;Min_cycle;Max_cycle;Signal;HPM_P1;HPM_P2
2022/12/09 00:00:30;;;;;;;;;;;;;;;-5.17;72.49;99887.69;5078902;28;19916;-69
2022/12/09 00:02:56;;;;;;;;;;;;;;;-5.17;72.12;99889.50;5080560;28;19923;-69
2022/12/09 00:05:22;;;;;;;;;;;;;;;-5.17;72.08;99892.94;5077265;28;19917;-69
2022/12/09 00:07:47;;;;;;;;;;;;;;;-5.15;72.27;99892.84;5082464;28;19920;-69
2022/12/09 00:10:12;;;;;;;;;;;;;;;-5.15;71.87;99890.22;5078965;28;19916;-69
2022/12/09 00:12:38;;;;;;;;;;;;;;;-5.17;71.20;99886.88;5088851;28;20372;-69
2022/12/09 00:15:03;;;;;;;;;;;;;;;-5.18;71.27;99891.28;5080069;28;19920;-69
2022/12/09 00:17:29;;;;;;;;;;;;;;;-5.16;71.11;99885.91;5077269;28;19912;-69
2022/12/09 00:19:54;;;;;;;;;;;;;;;-5.14;71.04;99894.53;5080670;28;19970;-69
2022/12/09 00:22:19;;;;;;;;;;;;;;;-5.16;70.15;99894.63;5080308;28;19917;-69
2022/12/09 00:24:44;;;;;;;;;;;;;;;-5.16;71.41;99894.63;5084089;28;20014;-69
2022/12/09 00:27:10;;;;;;;;;;;;;;;-5.17;71.19;99885.09;5079596;28;19974;-69
2022/12/09 00:29:35;;;;;;;;;;;;;;;-5.16;71.06;99894.63;5086707;28;19920;-69
2022/12/09 00:32:00;;;;;;;;;;;;;;;-5.17;70.31;99881.63;5087154;28;19924;-69
2022/12/09 00:34:26;;;;;;;;;;;;;;;-5.16;70.52;99888.53;5078373;28;19924;-68
2022/12/09 00:36:51;;;;;;;;;;;;;;;-5.14;71.32;99889.28;5083592;28;19912;-68
2022/12/09 00:39:16;;;;;;;;;;;;;;;-5.13;70.66;99885.72;5078799;28;19916;-69
2022/12/09 00:41:42;;;;;;;;;;;;;;;-5.14;71.05;99892.72;5079405;28;20384;-69
2022/12/09 00:44:08;;;;;;;;;;;;;;;-5.11;72.45;99899.53;5093515;28;20399;-69
2022/12/09 00:46:33;;;;;;;;;;;;;;;-5.37;70.30;99859.47;5081466;28;19935;-69
2022/12/09 00:48:59;;;;;;;;;;;;;;;-5.13;71.43;99898.78;5075891;28;19962;-69
2022/12/09 00:51:24;;;;;;;;;;;;;;;-5.13;72.20;99904.03;5084142;28;20307;-69
2022/12/09 00:53:53;;;;;;;;;;;;;;;-5.11;72.85;99908.22;5082532;28;20014;-69
2022/12/09 00:56:19;;;;;;;;;;;;;;;-5.11;71.85;99910.84;5077743;28;19916;-69
2022/12/09 00:58:44;;;;;;;;;;;;;;;-5.13;70.66;99907.47;5078186;28;19931;-69
2022/12/09 01:01:09;;;;;;;;;;;;;;;-5.14;70.39;99913.69;5077511;28;19917;-69
2022/12/09 01:03:35;;;;;;;;;;;;;;;-5.10;71.44;99919.53;5075126;28;19912;-68
2022/12/09 01:06:00;;;;;;;;;;;;;;;-5.12;72.27;99900.47;5088264;28;19956;-69
2022/12/09 01:08:25;;;;;;;;;;;;;;;-5.14;71.34;99913.69;5081974;28;19912;-69
2022/12/09 01:10:51;;;;;;;;;;;;;;;-5.14;70.62;99912.84;5088688;28;19913;-69
2022/12/09 01:13:16;;;;;;;;;;;;;;;-5.10;72.45;99912.50;5073002;28;19967;-69
2022/12/09 01:15:42;;;;;;;;;;;;;;;-5.10;70.98;99915.13;5078174;28;20257;-69
2022/12/09 01:18:07;;;;;;;;;;;;;;;-5.09;70.89;99914.19;5089672;28;19924;-69
2022/12/09 01:20:33;;;;;;;;;;;;;;;-5.09;72.65;99919.44;5077257;28;19921;-69
2022/12/09 01:22:58;;;;;;;;;;;;;;;-5.07;71.75;99919.31;5084524;28;19922;-69
2022/12/09 01:25:23;;;;;;;;;;;;;;;-5.06;71.76;99921.00;5072946;28;19913;-69
2022/12/09 01:27:49;;;;;;;;;;;;;;;-5.04;71.74;99924.34;5093076;28;19919;-69
2022/12/09 01:30:14;;;;;;;;;;;;;;;-5.04;71.18;99926.13;5092994;28;20266;-69
2022/12/09 01:32:39;;;;;;;;;;;;;;;-5.06;69.95;99929.66;5091780;28;20441;-69
2022/12/09 01:35:05;;;;;;;;;;;;;;;-5.04;70.71;99926.94;5083992;28;19938;-69
2022/12/09 01:37:31;;;;;;;;;;;;;;;-5.02;70.73;99938.16;5076935;28;20360;-69
2022/12/09 01:39:56;;;;;;;;;;;;;;;-5.00;70.86;99941.50;5085905;28;19923;-69
2022/12/09 01:42:23;;;;;;;;;;;;;;;-5.09;69.33;99936.91;5075720;28;20375;-70
2022/12/09 01:45:06;;;;;;;;;;;;;;;-5.03;70.37;99940.88;5088732;28;19916;-69
2022/12/09 01:47:32;;;;;;;;;;;;;;;-5.01;72.37;99944.22;5096273;28;20394;-69
2022/12/09 01:49:57;;;;;;;;;;;;;;;-4.99;72.55;99939.72;5103705;28;19916;-69
2022/12/09 01:52:22;;;;;;;;;;;;;;;-4.99;71.69;99947.59;5091281;28;20010;-69
2022/12/09 01:54:49;;;;;;;;;;;;;;;-5.00;70.52;99951.97;5082079;28;20618;-69
2022/12/09 01:57:14;;;;;;;;;;;;;;;-4.98;70.82;99944.84;5078933;28;19923;-69
2022/12/09 01:59:40;;;;;;;;;;;;;;;-4.97;71.11;99940.47;5082382;28;19920;-69
2022/12/09 02:02:07;;;;;;;;;;;;;;;-4.97;71.82;99937.84;5080083;28;19912;-69
2022/12/09 02:04:35;;;;;;;;;;;;;;;-4.97;71.10;99932.59;5092531;28;19924;-69
2022/12/09 02:07:02;;;;;;;;;;;;;;;-4.98;72.11;99934.38;5092513;28;19950;-69
2022/12/09 02:09:28;;;;;;;;;;;;;;;-4.97;70.90;99935.22;5087738;28;19942;-70
2022/12/09 02:12:10;;;;;;;;;;;;;;;-4.97;70.04;99938.66;5078050;28;20322;-69
2022/12/09 02:14:52;;;;;;;;;;;;;;;-4.97;70.71;99937.84;5095577;28;19920;-69
2022/12/09 02:17:41;;;;;;;;;;;;;;;-4.99;70.08;99943.19;5072266;28;19924;-69
2022/12/09 02:20:25;;;;;;;;;;;;;;;-4.99;70.46;99939.72;5063959;28;20003;-69
2022/12/09 02:23:04;;;;;;;;;;;;;;;-5.01;69.96;99952.94;5072239;28;19912;-69
2022/12/09 02:25:35;;;;;;;;;;;;;;;-5.02;69.24;99948.63;5075451;28;19916;-68
2022/12/09 02:28:06;;;;;;;;;;;;;;;-5.02;70.06;99951.25;5075755;28;19995;-69
2022/12/09 02:30:36;;;;;;;;;;;;;;;-5.02;68.93;99953.03;5080354;28;19916;-68
2022/12/09 02:33:10;;;;;;;;;;;;;;;-5.00;71.80;99944.13;5099000;28;19955;-68
2022/12/09 02:35:47;;;;;;;;;;;;;;;-5.03;70.16;99949.59;5091038;28;19940;-69
2022/12/09 02:38:16;;;;;;;;;;;;;;;-5.02;70.78;99953.03;5092526;28;20477;-69
2022/12/09 02:40:44;;;;;;;;;;;;;;;-5.06;70.49;99945.38;5092208;28;19912;-69
2022/12/09 02:43:10;;;;;;;;;;;;;;;-5.08;70.90;99952.50;5092415;28;19919;-69
2022/12/09 02:45:37;;;;;;;;;;;;;;;-5.10;70.48;99950.94;5074086;28;19943;-69
2022/12/09 02:48:03;;;;;;;;;;;;;;;-5.11;71.27;99949.25;5092419;28;20332;-69
2022/12/09 02:50:31;;;;;;;;;;;;;;;-5.11;71.22;99950.13;5091651;28;20010;-69
2022/12/09 02:52:58;;;;;;;;;;;;;;;-5.12;71.38;99948.44;5087080;28;19973;-68
2022/12/09 02:55:23;;;;;;;;;;;;;;;-5.12;70.66;99950.22;5084877;28;20057;-69
2022/12/09 02:57:55;;;;;;;;;;;;;;;-5.13;69.97;99959.81;5075925;28;19916;-69
2022/12/09 03:00:20;;;;;;;;;;;;;;;-5.13;70.54;99965.06;5074526;28;19917;-69
2022/12/09 03:02:48;;;;;;;;;;;;;;;-5.14;71.42;99960.78;5074932;28;20364;-69
2022/12/09 03:05:22;;;;;;;;;;;;;;;-5.18;69.20;99961.09;5094480;28;19912;-69
2022/12/09 03:07:51;;;;;;;;;;;;;;;-5.17;70.21;99954.94;5092864;28;19924;-69
2022/12/09 03:10:25;;;;;;;;;;;;;;;-5.17;70.98;99970.63;5086748;28;19939;-69
2022/12/09 03:12:55;;;;;;;;;;;;;;;-5.15;71.98;99976.59;5079741;28;19921;-68
2022/12/09 03:15:25;;;;;;;;;;;;;;;-5.16;71.53;99973.16;5084400;28;20070;-68
2022/12/09 03:17:51;;;;;;;;;;;;;;;-5.16;69.39;99980.16;5075519;28;20372;-69
2022/12/09 03:20:21;;;;;;;;;;;;;;;-5.17;70.98;99976.69;5085594;28;19916;-69
2022/12/09 03:22:53;;;;;;;;;;;;;;;-5.13;72.83;99983.38;5094711;28;19998;-69
2022/12/09 03:25:38;;;;;;;;;;;;;;;-5.15;71.20;99982.66;5095459;28;19912;-69
2022/12/09 03:28:05;;;;;;;;;;;;;;;-5.16;71.01;99981.00;5094046;28;19912;-69
2022/12/09 03:30:34;;;;;;;;;;;;;;;-5.16;72.06;99990.63;5093246;28;19917;-69
2022/12/09 03:33:01;;;;;;;;;;;;;;;-5.16;71.63;99991.47;5097304;28;20399;-69
2022/12/09 03:35:37;;;;;;;;;;;;;;;-5.19;70.22;99983.81;5081866;28;20258;-69
2022/12/09 03:38:05;;;;;;;;;;;;;;;-5.17;72.65;99988.94;5074929;28;19995;-69
2022/12/09 03:40:31;;;;;;;;;;;;;;;-5.19;72.21;99988.22;5082765;28;19947;-69
2022/12/09 03:43:02;;;;;;;;;;;;;;;-5.18;72.53;99989.88;5093935;28;19919;-68
2022/12/09 03:45:28;;;;;;;;;;;;;;;-5.18;71.58;99992.50;5095165;28;19916;-68
2022/12/09 03:47:54;;;;;;;;;;;;;;;-5.20;70.58;99992.63;5095303;28;20002;-68
2022/12/09 03:50:21;;;;;;;;;;;;;;;-5.20;72.61;99987.41;5095088;28;19943;-68
2022/12/09 03:52:52;;;;;;;;;;;;;;;-5.22;71.28;99988.44;5094938;28;19926;-68
2022/12/09 03:55:36;;;;;;;;;;;;;;;-5.29;69.21;99999.31;5094683;28;19980;-69
2022/12/09 03:58:03;;;;;;;;;;;;;;;-5.29;70.98;99995.88;5089336;28;19915;-67
2022/12/09 04:00:29;;;;;;;;;;;;;;;-5.32;70.76;100012.59;5079357;28;19917;-68
2022/12/09 04:02:54;;;;;;;;;;;;;;;-5.33;71.27;100012.69;5081649;28;20400;-69
2022/12/09 04:05:20;;;;;;;;;;;;;;;-5.34;71.87;100011.88;5079831;28;19913;-69
2022/12/09 04:07:45;;;;;;;;;;;;;;;-5.34;71.04;100021.50;5083090;28;20015;-68
2022/12/09 04:10:10;;;;;;;;;;;;;;;-5.34;72.37;100021.50;5104828;28;19912;-69
2022/12/09 04:12:35;;;;;;;;;;;;;;;-5.35;70.96;100028.53;5094500;28;20577;-69
2022/12/09 04:15:01;;;;;;;;;;;;;;;-5.35;70.31;100030.28;5094916;28;19912;-68
2022/12/09 04:17:26;;;;;;;;;;;;;;;-5.35;70.67;100033.75;5083686;28;19916;-69
2022/12/09 04:19:51;;;;;;;;;;;;;;;-5.36;70.96;100039.09;5085378;28;19917;-68
2022/12/09 04:22:17;;;;;;;;;;;;;;;-5.37;71.17;100040.84;5080841;28;20396;-69
2022/12/09 04:24:42;;;;;;;;;;;;;;;-5.38;70.44;100046.22;5085759;28;19923;-68
2022/12/09 04:27:09;;;;;;;;;;;;;;;-5.38;71.81;100046.22;5079366;28;19916;-69
2022/12/09 04:29:35;;;;;;;;;;;;;;;-5.42;69.81;100055.19;5082612;28;19920;-68
2022/12/09 04:32:00;;;;;;;;;;;;;;;-5.43;72.34;100051.72;5081674;28;19939;-69
2022/12/09 04:34:25;;;;;;;;;;;;;;;-5.43;72.21;100051.72;5077364;28;20304;-68
2022/12/09 04:36:51;;;;;;;;;;;;;;;-5.47;70.86;100056.31;5079613;28;19970;-69
2022/12/09 04:39:18;;;;;;;;;;;;;;;-5.46;72.31;100057.16;5083381;28;19916;-70
2022/12/09 04:41:43;;;;;;;;;;;;;;;-5.47;71.63;100052.88;5079549;28;20438;-69
2022/12/09 04:44:08;;;;;;;;;;;;;;;-5.47;70.70;100063.34;5080217;28;20110;-70
2022/12/09 04:46:34;;;;;;;;;;;;;;;-5.49;69.93;100060.81;5083843;28;19923;-70
2022/12/09 04:48:59;;;;;;;;;;;;;;;-5.47;71.42;100061.56;5076052;28;19996;-70
2022/12/09 04:51:24;;;;;;;;;;;;;;;-5.50;69.51;100072.25;5070215;28;20003;-69
2022/12/09 04:53:49;;;;;;;;;;;;;;;-5.50;70.37;100069.63;5086521;28;19928;-69
2022/12/09 04:56:17;;;;;;;;;;;;;;;-5.54;68.39;100064.69;5079802;28;19916;-69
2022/12/09 04:58:43;;;;;;;;;;;;;;;-5.55;70.75;100076.94;5081522;28;19966;-70
2022/12/09 05:01:10;;;;;;;;;;;;;;;-5.58;70.88;100066.66;5078953;28;19952;-70
2022/12/09 05:03:36;;;;;;;;;;;;;;;-5.60;69.79;100073.78;5080302;28;19923;-69
2022/12/09 05:06:11;;;;;;;;;;;;;;;-5.61;70.11;100074.69;5082459;28;19920;-69
2022/12/09 05:08:37;;;;;;;;;;;;;;;-5.65;69.30;100079.28;5078605;28;20011;-69
2022/12/09 05:11:02;;;;;;;;;;;;;;;-5.71;68.04;100082.31;5089945;28;19986;-69
2022/12/09 05:13:28;;;;;;;;;;;;;;;-5.72;70.58;100085.88;5078608;28;20022;-69
2022/12/09 05:15:57;;;;;;;;;;;;;;;-5.77;69.03;100082.72;5078428;28;19913;-69
2022/12/09 05:18:23;;;;;;;;;;;;;;;-5.77;71.12;100087.94;5058688;28;19960;-68
2022/12/09 05:20:48;;;;;;;;;;;;;;;-5.83;68.78;100093.56;5078237;28;19970;-68
2022/12/09 05:23:13;;;;;;;;;;;;;;;-5.87;69.76;100092.06;5084005;28;19916;-68
2022/12/09 05:25:38;;;;;;;;;;;;;;;-5.93;69.17;100089.84;5086448;28;19920;-69
2022/12/09 05:28:04;;;;;;;;;;;;;;;-5.99;68.42;100093.72;5092779;28;19935;-69
2022/12/09 05:30:29;;;;;;;;;;;;;;;-6.02;69.43;100099.13;5093048;28;19912;-69
2022/12/09 05:32:54;;;;;;;;;;;;;;;-6.07;70.15;100102.06;5112135;28;20336;-69
2022/12/09 05:35:20;;;;;;;;;;;;;;;-6.14;71.60;100090.31;5113550;28;19912;-69
2022/12/09 05:37:45;;;;;;;;;;;;;;;-6.24;69.09;100089.19;5112103;28;20079;-69
2022/12/09 05:40:10;;;;;;;;;;;;;;;-6.31;70.88;100098.38;5113578;28;20278;-69
2022/12/09 05:42:36;;;;;;;;;;;;;;;-6.38;72.36;100105.72;5106334;28;19916;-69
2022/12/09 05:45:01;;;;;;;;;;;;;;;-6.43;72.29;100107.78;5092961;28;20295;-69
2022/12/09 05:47:27;;;;;;;;;;;;;;;-6.45;74.41;100107.88;5093008;28;20377;-69
2022/12/09 05:49:53;;;;;;;;;;;;;;;-6.50;73.11;100109.06;5093061;28;20408;-69
2022/12/09 05:52:18;;;;;;;;;;;;;;;-6.57;72.17;100108.63;5093037;28;19912;-69
2022/12/09 05:54:43;;;;;;;;;;;;;;;-6.59;71.61;100115.72;5091563;28;19916;-69
2022/12/09 05:57:08;;;;;;;;;;;;;;;-6.58;71.78;100103.50;5092779;28;19916;-69
2022/12/09 05:59:34;;;;;;;;;;;;;;;-6.56;71.34;100107.69;5091276;28;20264;-69
2022/12/09 06:01:59;;;;;;;;;;;;;;;-6.54;70.36;100108.44;5090681;28;19997;-70
2022/12/09 06:04:24;;;;;;;;;;;;;;;-6.49;71.81;100119.44;5092202;28;19919;-69
2022/12/09 06:06:49;;;;;;;;;;;;;;;-6.44;71.43;100116.56;5091111;28;19955;-69
2022/12/09 06:09:15;;;;;;;;;;;;;;;-6.42;70.58;100112.09;5092109;28;19912;-69
2022/12/09 06:11:40;;;;;;;;;;;;;;;-6.39;70.85;100117.09;5092436;28;19962;-69
2022/12/09 06:14:06;;;;;;;;;;;;;;;-6.37;71.07;100117.00;5092420;28;19916;-69
2022/12/09 06:16:31;;;;;;;;;;;;;;;-6.35;71.40;100117.75;5088696;28;19916;-69
2022/12/09 06:18:57;;;;;;;;;;;;;;;-6.33;69.53;100121.09;5083297;28;19916;-69
2022/12/09 06:21:22;;;;;;;;;;;;;;;-6.33;70.14;100123.72;5079760;28;20387;-69
2022/12/09 06:23:48;;;;;;;;;;;;;;;-6.32;70.87;100120.19;5092445;28;19916;-70
2022/12/09 06:26:17;;;;;;;;;;;;;;;-6.29;71.05;100125.22;5090955;28;19919;-70
2022/12/09 06:28:43;;;;;;;;;;;;;;;-6.25;73.36;100126.72;5090717;28;20036;-69
2022/12/09 06:31:08;;;;;;;;;;;;;;;-6.25;70.05;100124.09;5092291;28;19921;-70
2022/12/09 06:33:34;;;;;;;;;;;;;;;-6.24;68.79;100131.84;5092179;28;19916;-70
2022/12/09 06:36:00;;;;;;;;;;;;;;;-6.23;68.76;100133.50;5099051;28;19955;-70
2022/12/09 06:38:25;;;;;;;;;;;;;;;-6.21;68.73;100133.44;5111257;28;19943;-69
2022/12/09 06:40:50;;;;;;;;;;;;;;;-6.19;70.64;100138.56;5111422;28;20057;-69
2022/12/09 06:43:16;;;;;;;;;;;;;;;-6.23;68.08;100143.97;5111112;28;19922;-69
2022/12/09 06:45:41;;;;;;;;;;;;;;;-6.20;68.45;100153.41;5112555;28;20391;-69
2022/12/09 06:48:06;;;;;;;;;;;;;;;-6.17;69.12;100155.81;5111077;28;19912;-69
2022/12/09 06:50:31;;;;;;;;;;;;;;;-6.16;69.84;100151.44;5093386;28;19924;-70
2022/12/09 06:52:56;;;;;;;;;;;;;;;-6.15;68.76;100163.56;5071864;28;19917;-70
2022/12/09 06:55:22;;;;;;;;;;;;;;;-6.15;67.93;100160.97;5073273;28;20426;-70
2022/12/09 06:57:47;;;;;;;;;;;;;;;-6.14;69.37;100163.47;5077324;28;19955;-70
2022/12/09 07:00:13;;;;;;;;;;;;;;;-6.10;70.47;100177.19;5080720;28;19926;-70
2022/12/09 07:02:38;;;;;;;;;;;;;;;-6.09;69.87;100182.34;5075355;28;19916;-70
2022/12/09 07:05:04;;;;;;;;;;;;;;;-6.09;67.45;100190.19;5084080;28;19923;-70
2022/12/09 07:07:29;;;;;;;;;;;;;;;-6.08;67.91;100178.78;5076806;28;19938;-70
2022/12/09 07:09:54;;;;;;;;;;;;;;;-6.06;69.79;100179.50;5078836;28;19970;-70
2022/12/09 07:12:20;;;;;;;;;;;;;;;-6.07;69.06;100180.47;5071639;28;19928;-70
2022/12/09 07:14:45;;;;;;;;;;;;;;;-6.09;66.80;100177.13;5085329;28;19928;-70
2022/12/09 07:17:17;;;;;;;;;;;;;;;-6.07;67.66;100180.47;5082309;28;19995;-70
2022/12/09 07:19:43;;;;;;;;;;;;;;;-6.06;67.58;100187.34;5080748;28;19959;-69
2022/12/09 07:22:08;;;;;;;;;;;;;;;-6.04;69.35;100188.09;5095283;28;19955;-70
2022/12/09 07:24:33;;;;;;;;;;;;;;;-6.01;68.82;100186.25;5112367;28;19911;-70
2022/12/09 07:26:59;;;;;;;;;;;;;;;-6.03;68.12;100191.56;5089492;28;19921;-70
2022/12/09 07:29:24;;;;;;;;;;;;;;;-6.02;69.21;100193.25;5085323;28;19916;-70
2022/12/09 07:31:49;;;;;;;;;;;;;;;-6.00;70.38;100193.97;5094816;28;19971;-70
2022/12/09 07:34:15;;;;;;;;;;;;;;;-6.00;69.12;100198.38;5086759;28;19971;-69
2022/12/09 07:36:40;;;;;;;;;;;;;;;-6.00;70.14;100196.59;5079761;28;19983;-69
2022/12/09 07:39:09;;;;;;;;;;;;;;;-5.99;68.30;100207.91;5091561;28;19923;-69
2022/12/09 07:41:35;;;;;;;;;;;;;;;-5.99;68.59;100206.13;5078298;28;19916;-69
2022/12/09 07:44:00;;;;;;;;;;;;;;;-5.98;67.99;100199.97;5074609;28;19919;-69
2022/12/09 07:46:28;;;;;;;;;;;;;;;-6.00;66.54;100195.75;5074644;28;20007;-68
2022/12/09 07:48:54;;;;;;;;;;;;;;;-6.00;70.00;100207.06;5074901;28;19913;-69
2022/12/09 07:51:19;;;;;;;;;;;;;;;-6.02;67.15;100203.69;5085085;28;19919;-68
2022/12/09 07:53:44;;;;;;;;;;;;;;;-6.00;67.55;100208.84;5091526;28;19956;-68
2022/12/09 07:56:10;;;;;;;;;;;;;;;-5.99;67.44;100208.75;5093468;28;19922;-68
2022/12/09 07:58:36;;;;;;;;;;;;;;;-5.97;66.06;100217.34;5094575;28;19961;-68
2022/12/09 08:01:06;;;;;;;;;;;;;;;-5.95;69.04;100218.03;5094678;28;19912;-68
2022/12/09 08:03:31;;;;;;;;;;;;;;;-5.94;67.98;100218.88;5094187;28;19912;-67
2022/12/09 08:05:56;;;;;;;;;;;;;;;-5.94;68.65;100219.75;5094813;28;20371;-67
2022/12/09 08:08:21;;;;;;;;;;;;;;;-5.92;67.50;100223.09;5095042;28;19912;-67
2022/12/09 08:10:48;;;;;;;;;;;;;;;-5.91;67.33;100226.53;5094088;28;20609;-67
2022/12/09 08:13:13;;;;;;;;;;;;;;;-5.90;66.94;100228.22;5094516;28;19920;-68
2022/12/09 08:15:38;;;;;;;;;;;;;;;-5.88;67.93;100226.38;5094403;28;19919;-67
2022/12/09 08:18:04;;;;;;;;;;;;;;;-5.89;67.12;100235.13;5092371;28;19912;-67
2022/12/09 08:20:30;;;;;;;;;;;;;;;-5.87;68.00;100233.25;5094470;28;19912;-66
2022/12/09 08:22:55;;;;;;;;;;;;;;;-5.86;67.84;100235.78;5094239;28;19912;-67
2022/12/09 08:25:20;;;;;;;;;;;;;;;-5.83;67.90;100242.63;5093069;28;19935;-67
2022/12/09 08:27:46;;;;;;;;;;;;;;;-5.84;68.19;100246.97;5094634;28;19912;-66
2022/12/09 08:30:11;;;;;;;;;;;;;;;-5.82;67.68;100246.06;5094385;28;20301;-67
2022/12/09 08:32:36;;;;;;;;;;;;;;;-5.81;68.26;100253.81;5112393;28;19912;-67
2022/12/09 08:35:02;;;;;;;;;;;;;;;-5.82;67.54;100259.97;5114587;28;19912;-67
2022/12/09 08:37:27;;;;;;;;;;;;;;;-5.81;67.44;100251.22;5114415;28;20002;-68
2022/12/09 08:39:52;;;;;;;;;;;;;;;-5.80;66.39;100265.94;5114468;28;19912;-67
2022/12/09 08:42:18;;;;;;;;;;;;;;;-5.78;68.09;100269.31;5114692;28;19950;-67
2022/12/09 08:44:43;;;;;;;;;;;;;;;-5.77;66.50;100271.00;5114374;28;19912;-67
2022/12/09 08:47:08;;;;;;;;;;;;;;;-5.74;66.46;100280.41;5114322;28;19929;-67
2022/12/09 08:49:34;;;;;;;;;;;;;;;-5.69;69.41;100283.59;5109582;28;19912;-68
2022/12/09 08:51:59;;;;;;;;;;;;;;;-5.68;68.79;100286.13;5094084;28;19966;-67
2022/12/09 08:54:27;;;;;;;;;;;;;;;-5.69;66.54;100278.38;5092241;28;19954;-67
2022/12/09 08:56:53;;;;;;;;;;;;;;;-5.69;65.65;100276.59;5093790;28;19934;-67
2022/12/09 08:59:19;;;;;;;;;;;;;;;-5.66;67.56;100286.03;5093868;28;20000;-67
2022/12/09 09:01:44;;;;;;;;;;;;;;;-5.64;67.30;100290.22;5093262;28;20000;-67
2022/12/09 09:04:11;;;;;;;;;;;;;;;-5.58;68.72;100286.41;5093707;28;19912;-67
2022/12/09 09:06:38;;;;;;;;;;;;;;;-5.55;67.13;100290.59;5093584;28;19919;-68
2022/12/09 09:09:05;;;;;;;;;;;;;;;-5.56;65.79;100288.91;5092706;28;20002;-68
2022/12/09 09:11:30;;;;;;;;;;;;;;;-5.51;67.64;100289.47;5093402;28;20344;-67
2022/12/09 09:13:55;;;;;;;;;;;;;;;-5.47;65.78;100299.66;5093532;28;19916;-67
2022/12/09 09:16:22;;;;;;;;;;;;;;;-5.47;65.88;100296.19;5093769;28;20049;-68
2022/12/09 09:18:48;;;;;;;;;;;;;;;-5.45;64.73;100294.31;5093324;28;20272;-67
2022/12/09 09:21:15;;;;;;;;;;;;;;;-5.39;67.30;100296.53;5093307;28;19912;-67
2022/12/09 09:23:41;;;;;;;;;;;;;;;-5.33;66.50;100301.41;5091938;28;19935;-67
2022/12/09 09:26:10;;;;;;;;;;;;;;;-5.33;66.13;100293.56;5093459;28;19916;-67
2022/12/09 09:28:36;;;;;;;;;;;;;;;-5.28;66.70;100296.72;5093206;28;19916;-68
2022/12/09 09:31:03;;;;;;;;;;;;;;;-5.26;65.54;100302.72;5097432;28;19965;-67
2022/12/09 09:33:28;;;;;;;;;;;;;;;-5.22;65.06;100307.75;5094950;28;20010;-67
2022/12/09 09:35:55;;;;;;;;;;;;;;;-5.21;66.50;100304.19;5112299;28;19956;-67
2022/12/09 09:38:20;;;;;;;;;;;;;;;-5.22;66.67;100305.13;5113089;28;20021;-67
2022/12/09 09:40:45;;;;;;;;;;;;;;;-5.22;65.80;100308.56;5113459;28;19986;-67
2022/12/09 09:43:15;;;;;;;;;;;;;;;-5.22;65.69;100312.97;5113309;28;19911;-67
2022/12/09 09:45:40;;;;;;;;;;;;;;;-5.26;64.86;100313.19;5113000;28;19971;-67
2022/12/09 09:48:08;;;;;;;;;;;;;;;-5.25;64.24;100321.88;5112990;28;20332;-67
2022/12/09 09:50:36;;;;;;;;;;;;;;;-5.21;65.04;100323.34;5099957;28;19912;-67
2022/12/09 09:53:11;;;;;;;;;;;;;;;-5.16;66.72;100323.06;5092718;28;19916;-67
2022/12/09 09:55:46;;;;;;;;;;;;;;;-5.14;66.63;100329.06;5092913;28;20379;-67
2022/12/09 09:58:15;;;;;;;;;;;;;;;-5.10;66.93;100333.16;5092727;28;20274;-67
2022/12/09 10:00:45;;;;;;;;;;;;;;;-5.10;67.19;100334.00;5092057;28;19912;-67
2022/12/09 10:03:13;;;;;;;;;;;;;;;-5.07;66.03;100339.03;5092072;28;19913;-67
2022/12/09 10:05:44;;;;;;;;;;;;;;;-5.04;65.14;100332.75;5092324;28;19947;-68
2022/12/09 10:08:28;;;;;;;;;;;;;;;-5.00;64.50;100338.66;5092562;28;20279;-68
2022/12/09 10:11:04;;;;;;;;;;;;;;;-4.95;68.09;100339.22;5092119;28;19955;-67
2022/12/09 10:13:42;;;;;;;;;;;;;;;-4.97;64.53;100341.91;5092423;28;19934;-68
2022/12/09 10:16:25;;;;;;;;;;;;;;;-4.97;63.97;100343.69;5092803;28;20291;-67
2022/12/09 10:19:14;;;;;;;;;;;;;;;-4.97;65.07;100341.09;5091011;28;20252;-66
2022/12/09 10:21:41;;;;;;;;;;;;;;;-4.92;68.23;100339.84;5092641;28;19980;-67
2022/12/09 10:24:32;;;;;;;;;;;;;;;-4.91;66.77;100343.31;5092141;28;19942;-67
2022/12/09 10:27:00;;;;;;;;;;;;;;;-4.87;66.28;100352.66;5089324;28;20063;-67
2022/12/09 10:29:38;;;;;;;;;;;;;;;-4.87;65.11;100350.88;5092251;28;19935;-67
2022/12/09 10:32:03;;;;;;;;;;;;;;;-4.86;66.13;100360.41;5105326;28;20076;-67
2022/12/09 10:34:29;;;;;;;;;;;;;;;-4.80;67.52;100353.94;5112404;28;19916;-67
2022/12/09 10:36:54;;;;;;;;;;;;;;;-4.80;66.63;100356.56;5112482;28;19947;-67
2022/12/09 10:39:20;;;;;;;;;;;;;;;-4.77;66.02;100359.00;5111108;28;19919;-67
2022/12/09 10:44:32;;;;;;;;;;;;;;;-4.73;63.37;100360.47;5112229;28;19912;-67
2022/12/09 10:46:59;;;;;;;;;;;;;;;-4.70;63.14;100362.91;5112354;28;19923;-67
2022/12/09 10:49:25;;;;;;;;;;;;;;;-4.64;65.26;100368.66;5109108;28;20288;-67
2022/12/09 10:51:51;;;;;;;;;;;;;;;-4.60;66.03;100365.75;5092292;28;19919;-66
2022/12/09 10:54:16;;;;;;;;;;;;;;;-4.52;64.92;100367.88;5092257;28;19916;-66
2022/12/09 10:57:00;;;;;;;;;;;;;;;-4.45;65.08;100365.72;5091937;28;19912;-67
2022/12/09 10:59:28;;;;;;;;;;;;;;;-4.40;63.22;100377.59;5092187;28;20245;-67
2022/12/09 11:01:55;;;;;;;;;;;;;;;-4.28;64.42;100378.56;5091339;28;19916;-66
2022/12/09 11:04:37;;;;;;;;;;;;;;;-4.20;62.73;100370.19;5092077;28;20037;-67
2022/12/09 11:07:13;;;;;;;;;;;;;;;-4.08;62.66;100385.13;5091847;28;19912;-67
2022/12/09 11:09:41;;;;;;;;;;;;;;;-3.87;64.60;100374.97;5086074;28;20296;-67
2022/12/09 11:12:15;;;;;;;;;;;;;;;-3.73;63.79;100380.13;5073432;28;20295;-67
2022/12/09 11:14:48;;;;;;;;;;;;;;;-3.57;62.95;100377.28;5073986;28;19923;-67
2022/12/09 11:17:13;;;;;;;;;;;;;;;-3.37;66.82;100375.09;5075372;28;19967;-67
2022/12/09 11:19:39;;;;;;;;;;;;;;;-3.25;66.28;100382.13;5075096;28;20376;-67
2022/12/09 11:22:21;;;;;;;;;;;;;;;-3.18;62.24;100372.00;5075104;28;20007;-67
2022/12/09 11:24:46;;;;;;;;;;;;;;;-3.20;61.26;100377.38;5075196;28;19913;-67
2022/12/09 11:27:31;;;;;;;;;;;;;;;-3.13;62.89;100373.38;5092646;28;19919;-67
2022/12/09 11:30:05;;;;;;;;;;;;;;;-2.98;61.23;100371.44;5095690;28;19912;-68
2022/12/09 11:32:30;;;;;;;;;;;;;;;-2.78;63.52;100377.09;5112132;28;19912;-67
2022/12/09 11:34:55;;;;;;;;;;;;;;;-2.76;60.48;100373.38;5115647;28;19923;-66
2022/12/09 11:37:21;;;;;;;;;;;;;;;-2.66;61.06;100370.91;5114986;28;20598;-67
2022/12/09 11:39:49;;;;;;;;;;;;;;;-2.63;58.99;100375.13;5114715;28;19918;-68
2022/12/09 11:42:21;;;;;;;;;;;;;;;-2.72;62.21;100380.09;5114949;28;19912;-67
2022/12/09 11:44:55;;;;;;;;;;;;;;;-2.73;61.23;100372.31;5115000;28;20056;-67
2022/12/09 11:47:24;;;;;;;;;;;;;;;-2.79;61.38;100365.72;5114909;28;20260;-67
2022/12/09 11:49:51;;;;;;;;;;;;;;;-2.82;61.19;100373.81;5115267;28;19919;-67
2022/12/09 11:52:16;;;;;;;;;;;;;;;-2.90;62.96;100367.44;5115362;28;19958;-67
2022/12/09 11:54:45;;;;;;;;;;;;;;;-3.02;60.60;100370.00;5109286;28;19967;-66
2022/12/09 11:57:32;;;;;;;;;;;;;;;-3.07;62.02;100368.63;5094822;28;19919;-67
2022/12/09 12:00:00;;;;;;;;;;;;;;;-3.17;62.30;100381.59;5094581;28;19916;-66
2022/12/09 12:02:31;;;;;;;;;;;;;;;-3.25;61.51;100378.63;5093122;28;19995;-66
2022/12/09 12:05:00;;;;;;;;;;;;;;;-3.28;62.56;100384.13;5094834;28;19912;-67
2022/12/09 12:07:37;;;;;;;;;;;;;;;-3.04;64.31;100385.03;5094900;28;20283;-67
2022/12/09 12:10:04;;;;;;;;;;;;;;;-2.73;60.65;100386.31;5085468;28;19913;-69
2022/12/09 12:12:37;;;;;;;;;;;;;;;-2.78;59.59;100379.72;5074431;28;19962;-68
2022/12/09 12:15:12;;;;;;;;;;;;;;;-2.94;60.65;100372.91;5074637;28;19916;-67
2022/12/09 12:17:42;;;;;;;;;;;;;;;-3.06;64.80;100378.22;5074411;28;20057;-67
2022/12/09 12:20:10;;;;;;;;;;;;;;;-3.23;61.03;100384.63;5074207;28;19912;-67
2022/12/09 12:22:44;;;;;;;;;;;;;;;-3.29;63.96;100382.44;5073999;28;20379;-67
2022/12/09 12:25:12;;;;;;;;;;;;;;;-3.36;62.95;100382.88;5074062;28;20388;-67
2022/12/09 12:27:38;;;;;;;;;;;;;;;-3.35;64.97;100392.41;5074301;28;19974;-67
2022/12/09 12:30:23;;;;;;;;;;;;;;;-3.35;64.27;100396.81;5073722;28;19913;-67
2022/12/09 12:32:51;;;;;;;;;;;;;;;-3.38;60.16;100407.53;5112088;28;20035;-67
2022/12/09 12:35:32;;;;;;;;;;;;;;;-3.16;63.21;100401.63;5114680;28;19912;-68
2022/12/09 12:38:04;;;;;;;;;;;;;;;-2.94;63.46;100407.06;5114660;28;20002;-68
2022/12/09 12:40:50;;;;;;;;;;;;;;;-2.84;62.57;100401.16;5114678;28;19958;-67
2022/12/09 12:46:23;;;;;;;;;;;;;;;-3.31;64.41;100408.78;5114461;28;19912;-66
2022/12/09 12:48:52;;;;;;;;;;;;;;;-3.44;62.91;100407.94;5114616;28;19919;-67